sensor_id;sensor_type;location;lat;lon;timestamp;temperature;humidity
15296;DHT22;7749;49.964;7.890;2022-12-15T00:02:31;-0.40;99.90
15296;DHT22;7749;49.964;7.890;2022-12-15T00:05:36;-0.40;99.90
15296;DHT22;7749;49.964;7.890;2022-12-15T00:08:33;-0.40;99.90
15296;DHT22;7749;49.964;7.890;2022-12-15T00:11:38;-0.40;99.90
15296;DHT22;7749;49.964;7.890;2022-12-15T00:14:31;-0.30;99.90
15296;DHT22;7749;49.964;7.890;2022-12-15T00:17:24;-0.40;99.90
15296;DHT22;7749;49.964;7.890;2022-12-15T00:20:24;-0.60;99.90
15296;DHT22;7749;49.964;7.890;2022-12-15T00:23:15;-0.90;99.90
15296;DHT22;7749;49.964;7.890;2022-12-15T00:26:02;-1.10;99.90
15296;DHT22;7749;49.964;7.890;2022-12-15T00:28:59;-1.10;99.90
15296;DHT22;7749;49.964;7.890;2022-12-15T00:31:45;-1.10;99.90
15296;DHT22;7749;49.964;7.890;2022-12-15T00:34:32;-0.90;99.90
15296;DHT22;7749;49.964;7.890;2022-12-15T00:37:18;-0.80;99.90
15296;DHT22;7749;49.964;7.890;2022-12-15T00:40:05;-0.70;99.90
15296;DHT22;7749;49.964;7.890;2022-12-15T00:42:33;-0.60;99.90
15296;DHT22;7749;49.964;7.890;2022-12-15T00:45:02;-0.60;99.90
15296;DHT22;7749;49.964;7.890;2022-12-15T00:47:31;-0.60;99.90
15296;DHT22;7749;49.964;7.890;2022-12-15T00:49:59;-0.60;99.90
15296;DHT22;7749;49.964;7.890;2022-12-15T00:52:46;-0.60;99.90
15296;DHT22;7749;49.964;7.890;2022-12-15T00:55:32;-0.60;99.90
15296;DHT22;7749;49.964;7.890;2022-12-15T00:58:18;-0.60;99.90
15296;DHT22;7749;49.964;7.890;2022-12-15T01:01:06;-0.60;99.90
15296;DHT22;7749;49.964;7.890;2022-12-15T01:03:53;-0.60;99.90
15296;DHT22;7749;49.964;7.890;2022-12-15T01:06:39;-0.70;99.90
15296;DHT22;7749;49.964;7.890;2022-12-15T01:09:26;-0.70;99.90
15296;DHT22;7749;49.964;7.890;2022-12-15T01:12:12;-0.70;99.90
15296;DHT22;7749;49.964;7.890;2022-12-15T01:14:58;-0.80;99.90
15296;DHT22;7749;49.964;7.890;2022-12-15T01:17:45;-0.80;99.90
15296;DHT22;7749;49.964;7.890;2022-12-15T01:20:31;-0.80;99.90
15296;DHT22;7749;49.964;7.890;2022-12-15T01:23:01;-0.90;99.90
15296;DHT22;7749;49.964;7.890;2022-12-15T01:25:28;-0.80;99.90
15296;DHT22;7749;49.964;7.890;2022-12-15T01:27:56;-0.90;99.90
15296;DHT22;7749;49.964;7.890;2022-12-15T01:30:25;-0.90;99.90
15296;DHT22;7749;49.964;7.890;2022-12-15T01:32:53;-0.90;99.90
15296;DHT22;7749;49.964;7.890;2022-12-15T01:35:21;-0.90;99.90
15296;DHT22;7749;49.964;7.890;2022-12-15T01:37:49;-0.90;99.90
15296;DHT22;7749;49.964;7.890;2022-12-15T01:40:18;-1.00;99.90
15296;DHT22;7749;49.964;7.890;2022-12-15T01:53:52;-1.00;99.90
15296;DHT22;7749;49.964;7.890;2022-12-15T01:56:22;-1.10;99.90
15296;DHT22;7749;49.964;7.890;2022-12-15T01:58:53;-1.00;99.90
15296;DHT22;7749;49.964;7.890;2022-12-15T02:01:22;-1.10;99.90
15296;DHT22;7749;49.964;7.890;2022-12-15T02:03:50;-1.00;99.90
15296;DHT22;7749;49.964;7.890;2022-12-15T02:06:18;-1.00;99.90
15296;DHT22;7749;49.964;7.890;2022-12-15T02:08:50;-1.00;99.90
15296;DHT22;7749;49.964;7.890;2022-12-15T02:14:31;-1.10;99.90
15296;DHT22;7749;49.964;7.890;2022-12-15T02:17:21;-1.30;99.90
15296;DHT22;7749;49.964;7.890;2022-12-15T02:36:55;-1.90;99.90
15296;DHT22;7749;49.964;7.890;2022-12-15T02:39:24;-2.00;99.90
15296;DHT22;7749;49.964;7.890;2022-12-15T02:41:52;-2.10;99.90
15296;DHT22;7749;49.964;7.890;2022-12-15T02:44:30;-2.10;99.90
15296;DHT22;7749;49.964;7.890;2022-12-15T02:49:44;-1.90;99.90
15296;DHT22;7749;49.964;7.890;2022-12-15T03:00:43;-1.70;99.90
15296;DHT22;7749;49.964;7.890;2022-12-15T03:03:13;-1.60;99.90
15296;DHT22;7749;49.964;7.890;2022-12-15T03:05:50;-1.60;99.90
15296;DHT22;7749;49.964;7.890;2022-12-15T03:08:21;-1.60;99.90
15296;DHT22;7749;49.964;7.890;2022-12-15T03:10:50;-1.60;99.90
15296;DHT22;7749;49.964;7.890;2022-12-15T03:13:19;-1.50;99.90
15296;DHT22;7749;49.964;7.890;2022-12-15T03:15:47;-1.60;99.90
15296;DHT22;7749;49.964;7.890;2022-12-15T03:18:15;-1.50;99.90
15296;DHT22;7749;49.964;7.890;2022-12-15T03:20:43;-1.60;99.90
15296;DHT22;7749;49.964;7.890;2022-12-15T03:23:11;-1.50;99.90
15296;DHT22;7749;49.964;7.890;2022-12-15T03:25:38;-1.50;99.90
15296;DHT22;7749;49.964;7.890;2022-12-15T03:28:06;-1.60;99.90
15296;DHT22;7749;49.964;7.890;2022-12-15T03:30:34;-1.60;99.90
15296;DHT22;7749;49.964;7.890;2022-12-15T03:33:02;-1.60;99.90
15296;DHT22;7749;49.964;7.890;2022-12-15T03:35:30;-1.70;99.90
15296;DHT22;7749;49.964;7.890;2022-12-15T03:37:57;-1.70;99.90
15296;DHT22;7749;49.964;7.890;2022-12-15T03:40:25;-1.70;99.90
15296;DHT22;7749;49.964;7.890;2022-12-15T03:42:52;-1.70;99.90
15296;DHT22;7749;49.964;7.890;2022-12-15T03:45:22;-1.70;99.90
15296;DHT22;7749;49.964;7.890;2022-12-15T03:47:51;-1.70;99.90
15296;DHT22;7749;49.964;7.890;2022-12-15T03:50:22;-1.70;99.90
15296;DHT22;7749;49.964;7.890;2022-12-15T03:53:03;-1.70;99.90
15296;DHT22;7749;49.964;7.890;2022-12-15T03:55:34;-1.70;99.90
15296;DHT22;7749;49.964;7.890;2022-12-15T03:58:03;-1.70;99.90
15296;DHT22;7749;49.964;7.890;2022-12-15T04:00:41;-1.70;99.90
15296;DHT22;7749;49.964;7.890;2022-12-15T04:03:11;-1.70;99.90
15296;DHT22;7749;49.964;7.890;2022-12-15T04:05:39;-1.70;99.90
15296;DHT22;7749;49.964;7.890;2022-12-15T04:08:07;-1.70;99.90
15296;DHT22;7749;49.964;7.890;2022-12-15T04:10:35;-1.70;99.90
15296;DHT22;7749;49.964;7.890;2022-12-15T04:13:05;-1.70;99.90
15296;DHT22;7749;49.964;7.890;2022-12-15T04:15:35;-1.70;99.90
15296;DHT22;7749;49.964;7.890;2022-12-15T04:18:04;-1.70;99.90
15296;DHT22;7749;49.964;7.890;2022-12-15T04:20:33;-1.80;99.90
15296;DHT22;7749;49.964;7.890;2022-12-15T04:23:00;-1.80;99.90
15296;DHT22;7749;49.964;7.890;2022-12-15T04:25:28;-1.80;99.90
15296;DHT22;7749;49.964;7.890;2022-12-15T04:28:14;-1.80;99.90
15296;DHT22;7749;49.964;7.890;2022-12-15T04:31:12;-1.90;99.90
15296;DHT22;7749;49.964;7.890;2022-12-15T04:34:03;-1.90;99.90
15296;DHT22;7749;49.964;7.890;2022-12-15T04:36:51;-2.00;99.90
15296;DHT22;7749;49.964;7.890;2022-12-15T04:39:44;-2.00;99.90
15296;DHT22;7749;49.964;7.890;2022-12-15T04:42:34;-2.00;99.90
15296;DHT22;7749;49.964;7.890;2022-12-15T04:45:23;-2.00;99.90
15296;DHT22;7749;49.964;7.890;2022-12-15T04:48:10;-2.00;99.90
15296;DHT22;7749;49.964;7.890;2022-12-15T04:50:57;-1.90;99.90
15296;DHT22;7749;49.964;7.890;2022-12-15T04:53:44;-1.90;99.90
15296;DHT22;7749;49.964;7.890;2022-12-15T04:56:31;-1.80;99.90
15296;DHT22;7749;49.964;7.890;2022-12-15T04:59:17;-1.80;99.90
15296;DHT22;7749;49.964;7.890;2022-12-15T05:02:03;-1.70;99.90
15296;DHT22;7749;49.964;7.890;2022-12-15T05:04:50;-1.70;99.90
15296;DHT22;7749;49.964;7.890;2022-12-15T05:07:36;-1.70;99.90
15296;DHT22;7749;49.964;7.890;2022-12-15T05:10:22;-1.70;99.90
15296;DHT22;7749;49.964;7.890;2022-12-15T05:13:09;-1.70;99.90
15296;DHT22;7749;49.964;7.890;2022-12-15T05:15:56;-1.60;99.90
15296;DHT22;7749;49.964;7.890;2022-12-15T05:18:42;-1.60;99.90
15296;DHT22;7749;49.964;7.890;2022-12-15T05:21:29;-1.60;99.90
15296;DHT22;7749;49.964;7.890;2022-12-15T05:24:15;-1.60;99.90
15296;DHT22;7749;49.964;7.890;2022-12-15T05:27:01;-1.50;99.90
15296;DHT22;7749;49.964;7.890;2022-12-15T05:29:48;-1.50;99.90
15296;DHT22;7749;49.964;7.890;2022-12-15T05:32:37;-1.50;99.90
15296;DHT22;7749;49.964;7.890;2022-12-15T05:35:05;-1.80;99.90
15296;DHT22;7749;49.964;7.890;2022-12-15T05:37:33;-2.00;99.90
15296;DHT22;7749;49.964;7.890;2022-12-15T05:40:00;-2.20;99.90
15296;DHT22;7749;49.964;7.890;2022-12-15T05:42:28;-2.20;99.90
15296;DHT22;7749;49.964;7.890;2022-12-15T05:44:56;-2.20;99.90
15296;DHT22;7749;49.964;7.890;2022-12-15T05:47:23;-2.30;99.90
15296;DHT22;7749;49.964;7.890;2022-12-15T05:49:51;-2.30;99.90
15296;DHT22;7749;49.964;7.890;2022-12-15T05:52:18;-2.40;99.90
15296;DHT22;7749;49.964;7.890;2022-12-15T05:54:46;-2.40;99.90
15296;DHT22;7749;49.964;7.890;2022-12-15T05:57:14;-2.40;99.90
15296;DHT22;7749;49.964;7.890;2022-12-15T05:59:41;-2.40;99.90
15296;DHT22;7749;49.964;7.890;2022-12-15T06:02:09;-2.40;99.90
15296;DHT22;7749;49.964;7.890;2022-12-15T06:04:37;-2.40;99.90
15296;DHT22;7749;49.964;7.890;2022-12-15T06:07:04;-2.40;99.90
15296;DHT22;7749;49.964;7.890;2022-12-15T06:09:32;-2.30;99.90
15296;DHT22;7749;49.964;7.890;2022-12-15T06:12:00;-2.30;99.90
15296;DHT22;7749;49.964;7.890;2022-12-15T06:14:27;-2.30;99.90
15296;DHT22;7749;49.964;7.890;2022-12-15T06:16:55;-2.30;99.90
15296;DHT22;7749;49.964;7.890;2022-12-15T06:19:23;-2.30;99.90
15296;DHT22;7749;49.964;7.890;2022-12-15T06:21:51;-2.30;99.90
15296;DHT22;7749;49.964;7.890;2022-12-15T06:24:18;-2.30;99.90
15296;DHT22;7749;49.964;7.890;2022-12-15T06:26:46;-2.40;99.90
15296;DHT22;7749;49.964;7.890;2022-12-15T06:29:16;-2.30;99.90
15296;DHT22;7749;49.964;7.890;2022-12-15T06:31:44;-2.30;99.90
15296;DHT22;7749;49.964;7.890;2022-12-15T06:34:14;-2.30;99.90
15296;DHT22;7749;49.964;7.890;2022-12-15T06:36:42;-2.30;99.90
15296;DHT22;7749;49.964;7.890;2022-12-15T06:39:13;-2.30;99.90
15296;DHT22;7749;49.964;7.890;2022-12-15T06:41:42;-2.30;99.90
15296;DHT22;7749;49.964;7.890;2022-12-15T06:44:14;-2.20;99.90
15296;DHT22;7749;49.964;7.890;2022-12-15T06:46:42;-2.20;99.90
15296;DHT22;7749;49.964;7.890;2022-12-15T06:49:10;-2.20;99.90
15296;DHT22;7749;49.964;7.890;2022-12-15T06:51:38;-2.20;99.90
15296;DHT22;7749;49.964;7.890;2022-12-15T06:54:08;-2.30;99.90
15296;DHT22;7749;49.964;7.890;2022-12-15T06:56:38;-2.30;99.90
15296;DHT22;7749;49.964;7.890;2022-12-15T06:59:06;-2.30;99.90
15296;DHT22;7749;49.964;7.890;2022-12-15T07:01:34;-2.30;99.90
15296;DHT22;7749;49.964;7.890;2022-12-15T07:04:02;-2.30;99.90
15296;DHT22;7749;49.964;7.890;2022-12-15T07:06:36;-2.30;99.90
15296;DHT22;7749;49.964;7.890;2022-12-15T07:09:06;-2.30;99.90
15296;DHT22;7749;49.964;7.890;2022-12-15T07:11:34;-2.20;99.90
15296;DHT22;7749;49.964;7.890;2022-12-15T07:14:02;-2.20;99.90
15296;DHT22;7749;49.964;7.890;2022-12-15T07:16:31;-2.20;99.90
15296;DHT22;7749;49.964;7.890;2022-12-15T07:18:59;-2.20;99.90
15296;DHT22;7749;49.964;7.890;2022-12-15T07:21:27;-2.10;99.90
15296;DHT22;7749;49.964;7.890;2022-12-15T07:23:55;-2.20;99.90
15296;DHT22;7749;49.964;7.890;2022-12-15T07:26:24;-2.10;99.90
15296;DHT22;7749;49.964;7.890;2022-12-15T07:28:52;-2.10;99.90
15296;DHT22;7749;49.964;7.890;2022-12-15T07:31:21;-2.00;99.90
15296;DHT22;7749;49.964;7.890;2022-12-15T07:33:49;-2.00;99.90
15296;DHT22;7749;49.964;7.890;2022-12-15T07:36:19;-2.00;99.90
15296;DHT22;7749;49.964;7.890;2022-12-15T07:38:47;-2.00;99.90
15296;DHT22;7749;49.964;7.890;2022-12-15T07:41:18;-1.90;99.90
15296;DHT22;7749;49.964;7.890;2022-12-15T07:43:47;-1.90;99.90
15296;DHT22;7749;49.964;7.890;2022-12-15T07:46:15;-1.90;99.90
15296;DHT22;7749;49.964;7.890;2022-12-15T07:48:44;-1.90;99.90
15296;DHT22;7749;49.964;7.890;2022-12-15T07:51:18;-1.80;99.90
15296;DHT22;7749;49.964;7.890;2022-12-15T07:53:48;-1.80;99.90
15296;DHT22;7749;49.964;7.890;2022-12-15T07:56:19;-1.80;99.90
15296;DHT22;7749;49.964;7.890;2022-12-15T07:58:47;-1.70;99.90
15296;DHT22;7749;49.964;7.890;2022-12-15T08:01:15;-1.70;99.90
15296;DHT22;7749;49.964;7.890;2022-12-15T08:03:43;-1.70;99.90
15296;DHT22;7749;49.964;7.890;2022-12-15T08:06:13;-1.60;99.90
15296;DHT22;7749;49.964;7.890;2022-12-15T08:08:43;-1.60;99.90
15296;DHT22;7749;49.964;7.890;2022-12-15T08:11:21;-1.50;99.90
15296;DHT22;7749;49.964;7.890;2022-12-15T08:13:51;-1.50;99.90
15296;DHT22;7749;49.964;7.890;2022-12-15T08:16:39;-1.40;99.90
15296;DHT22;7749;49.964;7.890;2022-12-15T08:19:10;-1.40;99.90
15296;DHT22;7749;49.964;7.890;2022-12-15T08:21:39;-1.30;99.90
15296;DHT22;7749;49.964;7.890;2022-12-15T08:24:08;-1.30;99.90
15296;DHT22;7749;49.964;7.890;2022-12-15T08:26:37;-1.10;99.90
15296;DHT22;7749;49.964;7.890;2022-12-15T08:29:07;-1.00;99.90
15296;DHT22;7749;49.964;7.890;2022-12-15T08:31:55;-1.00;99.90
15296;DHT22;7749;49.964;7.890;2022-12-15T08:34:22;-0.90;99.90
15296;DHT22;7749;49.964;7.890;2022-12-15T08:36:50;-0.90;99.90
15296;DHT22;7749;49.964;7.890;2022-12-15T08:39:18;-0.90;99.90
15296;DHT22;7749;49.964;7.890;2022-12-15T08:41:46;-0.90;99.90
15296;DHT22;7749;49.964;7.890;2022-12-15T08:44:14;-0.80;99.90
15296;DHT22;7749;49.964;7.890;2022-12-15T08:46:43;-0.80;99.90
15296;DHT22;7749;49.964;7.890;2022-12-15T08:49:11;-0.80;99.90
15296;DHT22;7749;49.964;7.890;2022-12-15T08:51:46;-0.70;99.90
15296;DHT22;7749;49.964;7.890;2022-12-15T08:54:17;-0.70;99.90
15296;DHT22;7749;49.964;7.890;2022-12-15T08:56:45;-0.70;99.90
15296;DHT22;7749;49.964;7.890;2022-12-15T08:59:13;-0.70;99.90
15296;DHT22;7749;49.964;7.890;2022-12-15T09:01:42;-0.70;99.90
15296;DHT22;7749;49.964;7.890;2022-12-15T09:04:10;-0.70;99.90
15296;DHT22;7749;49.964;7.890;2022-12-15T09:06:38;-0.60;99.90
15296;DHT22;7749;49.964;7.890;2022-12-15T09:09:08;-0.50;99.90
15296;DHT22;7749;49.964;7.890;2022-12-15T09:11:37;-0.40;99.90
15296;DHT22;7749;49.964;7.890;2022-12-15T09:14:07;-0.50;99.90
15296;DHT22;7749;49.964;7.890;2022-12-15T09:16:47;-0.40;99.90
15296;DHT22;7749;49.964;7.890;2022-12-15T09:19:17;-0.50;99.90
15296;DHT22;7749;49.964;7.890;2022-12-15T09:21:50;-0.50;99.90
15296;DHT22;7749;49.964;7.890;2022-12-15T09:24:26;-0.60;99.90
15296;DHT22;7749;49.964;7.890;2022-12-15T09:27:02;-0.60;99.90
15296;DHT22;7749;49.964;7.890;2022-12-15T09:29:30;-0.60;99.90
15296;DHT22;7749;49.964;7.890;2022-12-15T09:31:57;-0.60;99.90
15296;DHT22;7749;49.964;7.890;2022-12-15T09:34:25;-0.60;99.90
15296;DHT22;7749;49.964;7.890;2022-12-15T09:36:55;-0.50;99.90
15296;DHT22;7749;49.964;7.890;2022-12-15T09:39:23;-0.50;99.90
15296;DHT22;7749;49.964;7.890;2022-12-15T09:41:53;-0.50;99.90
15296;DHT22;7749;49.964;7.890;2022-12-15T09:44:23;-0.60;99.90
15296;DHT22;7749;49.964;7.890;2022-12-15T09:47:15;-0.50;99.90
15296;DHT22;7749;49.964;7.890;2022-12-15T09:52:28;-0.50;99.90
15296;DHT22;7749;49.964;7.890;2022-12-15T09:54:57;-0.50;99.90
15296;DHT22;7749;49.964;7.890;2022-12-15T10:09:20;-0.10;99.90
15296;DHT22;7749;49.964;7.890;2022-12-15T10:12:15;-0.20;99.90
15296;DHT22;7749;49.964;7.890;2022-12-15T10:14:50;-0.20;99.90
15296;DHT22;7749;49.964;7.890;2022-12-15T10:17:27;-0.10;99.90
15296;DHT22;7749;49.964;7.890;2022-12-15T10:20:22;-0.10;99.90
15296;DHT22;7749;49.964;7.890;2022-12-15T10:22:53;0.00;99.90
15296;DHT22;7749;49.964;7.890;2022-12-15T10:25:26;-0.10;99.90
15296;DHT22;7749;49.964;7.890;2022-12-15T10:31:15;0.10;99.90
15296;DHT22;7749;49.964;7.890;2022-12-15T10:33:48;0.10;99.90
15296;DHT22;7749;49.964;7.890;2022-12-15T10:36:16;0.10;94.50
15296;DHT22;7749;49.964;7.890;2022-12-15T10:38:45;0.10;99.90
15296;DHT22;7749;49.964;7.890;2022-12-15T10:41:22;0.30;99.90
15296;DHT22;7749;49.964;7.890;2022-12-15T10:43:53;0.30;97.50
15296;DHT22;7749;49.964;7.890;2022-12-15T10:46:26;0.40;98.40
15296;DHT22;7749;49.964;7.890;2022-12-15T10:51:49;0.70;93.80
15296;DHT22;7749;49.964;7.890;2022-12-15T10:54:18;0.90;83.60
15296;DHT22;7749;49.964;7.890;2022-12-15T10:56:49;1.00;59.50
15296;DHT22;7749;49.964;7.890;2022-12-15T10:59:38;1.10;47.60
15296;DHT22;7749;49.964;7.890;2022-12-15T11:05:20;1.00;42.30
15296;DHT22;7749;49.964;7.890;2022-12-15T11:07:55;0.90;44.20
15296;DHT22;7749;49.964;7.890;2022-12-15T11:11:28;1.00;40.10
15296;DHT22;7749;49.964;7.890;2022-12-15T11:14:23;1.00;47.20
15296;DHT22;7749;49.964;7.890;2022-12-15T11:16:55;1.20;41.10
15296;DHT22;7749;49.964;7.890;2022-12-15T11:19:39;1.50;24.90
15296;DHT22;7749;49.964;7.890;2022-12-15T11:22:41;1.80;1.00
15296;DHT22;7749;49.964;7.890;2022-12-15T11:28:15;2.20;1.00
15296;DHT22;7749;49.964;7.890;2022-12-15T11:30:59;2.20;1.00
15296;DHT22;7749;49.964;7.890;2022-12-15T11:33:28;2.20;1.00
15296;DHT22;7749;49.964;7.890;2022-12-15T11:36:12;2.30;1.00
15296;DHT22;7749;49.964;7.890;2022-12-15T11:39:12;2.60;1.00
15296;DHT22;7749;49.964;7.890;2022-12-15T11:44:33;2.70;1.00
15296;DHT22;7749;49.964;7.890;2022-12-15T11:49:50;2.80;1.00
15296;DHT22;7749;49.964;7.890;2022-12-15T11:53:21;2.50;1.00
15296;DHT22;7749;49.964;7.890;2022-12-15T12:01:06;2.50;1.00
15296;DHT22;7749;49.964;7.890;2022-12-15T12:07:44;2.40;1.00
15296;DHT22;7749;49.964;7.890;2022-12-15T12:16:28;2.40;1.00
15296;DHT22;7749;49.964;7.890;2022-12-15T12:21:48;5.30;1.00
15296;DHT22;7749;49.964;7.890;2022-12-15T12:27:47;6.00;99.90
15296;DHT22;7749;49.964;7.890;2022-12-15T12:30:29;6.30;1.00
15296;DHT22;7749;49.964;7.890;2022-12-15T12:33:29;6.80;99.90
15296;DHT22;7749;49.964;7.890;2022-12-15T12:36:12;7.60;1.00
15296;DHT22;7749;49.964;7.890;2022-12-15T12:38:54;9.50;1.00
15296;DHT22;7749;49.964;7.890;2022-12-15T12:41:39;10.20;99.90
15296;DHT22;7749;49.964;7.890;2022-12-15T12:44:34;10.40;1.00
15296;DHT22;7749;49.964;7.890;2022-12-15T12:47:19;9.60;1.00
15296;DHT22;7749;49.964;7.890;2022-12-15T12:49:52;10.50;1.00
15296;DHT22;7749;49.964;7.890;2022-12-15T12:52:32;10.80;1.00
15296;DHT22;7749;49.964;7.890;2022-12-15T12:55:03;9.40;1.00
15296;DHT22;7749;49.964;7.890;2022-12-15T12:57:42;8.30;1.00
15296;DHT22;7749;49.964;7.890;2022-12-15T13:00:26;7.30;1.00
15296;DHT22;7749;49.964;7.890;2022-12-15T13:03:15;7.10;27.00
15296;DHT22;7749;49.964;7.890;2022-12-15T13:05:45;6.00;99.90
15296;DHT22;7749;49.964;7.890;2022-12-15T13:08:52;6.20;1.00
15296;DHT22;7749;49.964;7.890;2022-12-15T13:11:52;7.20;99.90
15296;DHT22;7749;49.964;7.890;2022-12-15T13:14:35;8.10;99.90
15296;DHT22;7749;49.964;7.890;2022-12-15T13:17:23;9.10;99.90
15296;DHT22;7749;49.964;7.890;2022-12-15T13:22:38;10.10;1.00
15296;DHT22;7749;49.964;7.890;2022-12-15T13:25:33;11.00;1.00
15296;DHT22;7749;49.964;7.890;2022-12-15T13:28:27;11.20;1.00
15296;DHT22;7749;49.964;7.890;2022-12-15T13:44:44;3.70;1.00
15296;DHT22;7749;49.964;7.890;2022-12-15T13:47:21;2.80;99.90
15296;DHT22;7749;49.964;7.890;2022-12-15T13:50:16;2.20;99.90
15296;DHT22;7749;49.964;7.890;2022-12-15T13:52:51;1.70;1.00
15296;DHT22;7749;49.964;7.890;2022-12-15T13:56:03;1.20;1.00
15296;DHT22;7749;49.964;7.890;2022-12-15T13:58:39;0.80;1.00
15296;DHT22;7749;49.964;7.890;2022-12-15T14:01:26;0.60;1.00
15296;DHT22;7749;49.964;7.890;2022-12-15T14:04:14;0.60;1.00
15296;DHT22;7749;49.964;7.890;2022-12-15T14:06:48;0.60;16.40
15296;DHT22;7749;49.964;7.890;2022-12-15T14:11:56;0.50;46.60
15296;DHT22;7749;49.964;7.890;2022-12-15T14:14:30;0.50;41.50
15296;DHT22;7749;49.964;7.890;2022-12-15T14:17:02;0.60;64.20
15296;DHT22;7749;49.964;7.890;2022-12-15T14:19:38;0.70;39.10
15296;DHT22;7749;49.964;7.890;2022-12-15T14:22:27;0.70;35.00
15296;DHT22;7749;49.964;7.890;2022-12-15T14:25:12;0.60;29.40
15296;DHT22;7749;49.964;7.890;2022-12-15T14:27:40;0.50;32.50
15296;DHT22;7749;49.964;7.890;2022-12-15T14:32:41;0.00;22.50
15296;DHT22;7749;49.964;7.890;2022-12-15T14:35:16;0.00;31.50
15296;DHT22;7749;49.964;7.890;2022-12-15T14:37:45;0.00;51.90
15296;DHT22;7749;49.964;7.890;2022-12-15T14:40:17;0.00;51.10
15296;DHT22;7749;49.964;7.890;2022-12-15T14:42:53;0.10;78.80
15296;DHT22;7749;49.964;7.890;2022-12-15T14:45:25;0.10;93.80
15296;DHT22;7749;49.964;7.890;2022-12-15T14:48:05;0.10;95.20
15296;DHT22;7749;49.964;7.890;2022-12-15T14:50:53;0.00;90.90
15296;DHT22;7749;49.964;7.890;2022-12-15T14:53:29;0.00;98.40
15296;DHT22;7749;49.964;7.890;2022-12-15T14:55:57;0.00;97.70
15296;DHT22;7749;49.964;7.890;2022-12-15T14:58:38;-0.10;98.10
15296;DHT22;7749;49.964;7.890;2022-12-15T15:04:03;-0.20;98.20
15296;DHT22;7749;49.964;7.890;2022-12-15T15:06:37;-0.40;92.20
15296;DHT22;7749;49.964;7.890;2022-12-15T15:09:29;-0.60;98.30
15296;DHT22;7749;49.964;7.890;2022-12-15T15:12:04;-0.70;99.90
15296;DHT22;7749;49.964;7.890;2022-12-15T15:14:42;-0.70;99.90
15296;DHT22;7749;49.964;7.890;2022-12-15T15:17:58;-0.70;99.90
15296;DHT22;7749;49.964;7.890;2022-12-15T15:20:32;-0.80;99.90
15296;DHT22;7749;49.964;7.890;2022-12-15T15:25:38;-0.90;99.90
15296;DHT22;7749;49.964;7.890;2022-12-15T15:28:14;-1.00;99.90
15296;DHT22;7749;49.964;7.890;2022-12-15T15:30:57;-1.10;99.90
15296;DHT22;7749;49.964;7.890;2022-12-15T15:33:27;-1.20;99.90
15296;DHT22;7749;49.964;7.890;2022-12-15T15:35:56;-1.20;99.90
15296;DHT22;7749;49.964;7.890;2022-12-15T15:38:33;-1.20;99.90
15296;DHT22;7749;49.964;7.890;2022-12-15T15:41:20;-1.20;99.90
15296;DHT22;7749;49.964;7.890;2022-12-15T15:43:49;-1.10;99.90
15296;DHT22;7749;49.964;7.890;2022-12-15T15:46:23;-1.00;99.90
15296;DHT22;7749;49.964;7.890;2022-12-15T15:48:57;-0.90;99.90
15296;DHT22;7749;49.964;7.890;2022-12-15T15:51:28;-0.90;99.90
15296;DHT22;7749;49.964;7.890;2022-12-15T15:54:07;-0.90;99.90
15296;DHT22;7749;49.964;7.890;2022-12-15T15:56:38;-0.90;99.90
15296;DHT22;7749;49.964;7.890;2022-12-15T15:59:11;-0.80;99.90
15296;DHT22;7749;49.964;7.890;2022-12-15T16:01:39;-0.80;99.90
15296;DHT22;7749;49.964;7.890;2022-12-15T16:04:07;-0.80;99.90
15296;DHT22;7749;49.964;7.890;2022-12-15T16:06:35;-0.80;99.90
15296;DHT22;7749;49.964;7.890;2022-12-15T16:09:10;-0.90;99.90
15296;DHT22;7749;49.964;7.890;2022-12-15T16:11:40;-0.90;99.90
15296;DHT22;7749;49.964;7.890;2022-12-15T16:14:15;-1.00;99.90
15296;DHT22;7749;49.964;7.890;2022-12-15T16:16:43;-1.00;99.90
15296;DHT22;7749;49.964;7.890;2022-12-15T16:19:11;-1.10;99.90
15296;DHT22;7749;49.964;7.890;2022-12-15T16:21:40;-1.30;99.90
15296;DHT22;7749;49.964;7.890;2022-12-15T16:24:13;-1.40;99.90
15296;DHT22;7749;49.964;7.890;2022-12-15T16:26:47;-1.50;99.90
15296;DHT22;7749;49.964;7.890;2022-12-15T16:29:18;-1.60;99.90
15296;DHT22;7749;49.964;7.890;2022-12-15T16:31:47;-1.60;99.90
15296;DHT22;7749;49.964;7.890;2022-12-15T16:34:15;-1.70;99.90
15296;DHT22;7749;49.964;7.890;2022-12-15T16:36:43;-1.70;99.90
15296;DHT22;7749;49.964;7.890;2022-12-15T16:39:23;-1.70;99.90
15296;DHT22;7749;49.964;7.890;2022-12-15T16:41:53;-1.70;99.90
15296;DHT22;7749;49.964;7.890;2022-12-15T16:44:30;-1.80;99.90
15296;DHT22;7749;49.964;7.890;2022-12-15T16:47:02;-1.80;99.90
15296;DHT22;7749;49.964;7.890;2022-12-15T16:54:15;-1.80;99.90
15296;DHT22;7749;49.964;7.890;2022-12-15T16:56:44;-1.90;99.90
15296;DHT22;7749;49.964;7.890;2022-12-15T17:06:58;-1.90;99.90
15296;DHT22;7749;49.964;7.890;2022-12-15T17:09:26;-1.90;99.90
15296;DHT22;7749;49.964;7.890;2022-12-15T17:11:55;-2.00;99.90
15296;DHT22;7749;49.964;7.890;2022-12-15T17:14:28;-2.00;99.90
15296;DHT22;7749;49.964;7.890;2022-12-15T17:16:56;-2.10;99.90
15296;DHT22;7749;49.964;7.890;2022-12-15T17:19:24;-2.00;99.90
15296;DHT22;7749;49.964;7.890;2022-12-15T17:21:52;-2.10;99.90
15296;DHT22;7749;49.964;7.890;2022-12-15T17:24:20;-2.10;99.90
15296;DHT22;7749;49.964;7.890;2022-12-15T17:26:49;-2.10;99.90
15296;DHT22;7749;49.964;7.890;2022-12-15T17:29:21;-2.10;99.90
15296;DHT22;7749;49.964;7.890;2022-12-15T17:31:49;-2.10;99.90
15296;DHT22;7749;49.964;7.890;2022-12-15T17:34:31;-2.10;99.90
15296;DHT22;7749;49.964;7.890;2022-12-15T17:37:02;-2.10;99.90
15296;DHT22;7749;49.964;7.890;2022-12-15T17:39:32;-2.20;99.90
15296;DHT22;7749;49.964;7.890;2022-12-15T17:42:01;-2.20;99.90
15296;DHT22;7749;49.964;7.890;2022-12-15T17:44:33;-2.20;99.90
15296;DHT22;7749;49.964;7.890;2022-12-15T17:47:06;-2.20;99.90
15296;DHT22;7749;49.964;7.890;2022-12-15T17:49:35;-2.20;99.90
15296;DHT22;7749;49.964;7.890;2022-12-15T17:52:29;-2.20;99.90
15296;DHT22;7749;49.964;7.890;2022-12-15T17:55:01;-2.20;99.90
15296;DHT22;7749;49.964;7.890;2022-12-15T17:57:29;-2.20;99.90
15296;DHT22;7749;49.964;7.890;2022-12-15T17:59:58;-2.30;99.90
15296;DHT22;7749;49.964;7.890;2022-12-15T18:02:28;-2.30;99.90
15296;DHT22;7749;49.964;7.890;2022-12-15T18:04:56;-2.30;99.90
15296;DHT22;7749;49.964;7.890;2022-12-15T18:07:23;-2.30;99.90
15296;DHT22;7749;49.964;7.890;2022-12-15T18:09:52;-2.40;99.90
15296;DHT22;7749;49.964;7.890;2022-12-15T18:12:22;-2.40;99.90
15296;DHT22;7749;49.964;7.890;2022-12-15T18:14:50;-2.40;99.90
15296;DHT22;7749;49.964;7.890;2022-12-15T18:17:18;-2.40;99.90
15296;DHT22;7749;49.964;7.890;2022-12-15T18:19:47;-2.50;99.90
15296;DHT22;7749;49.964;7.890;2022-12-15T18:22:20;-2.50;99.90
15296;DHT22;7749;49.964;7.890;2022-12-15T18:24:50;-2.50;99.90
15296;DHT22;7749;49.964;7.890;2022-12-15T18:27:24;-2.50;99.90
15296;DHT22;7749;49.964;7.890;2022-12-15T18:29:52;-2.50;99.90
15296;DHT22;7749;49.964;7.890;2022-12-15T18:32:22;-2.60;99.90
15296;DHT22;7749;49.964;7.890;2022-12-15T18:34:50;-2.60;99.90
15296;DHT22;7749;49.964;7.890;2022-12-15T18:37:20;-2.60;99.90
15296;DHT22;7749;49.964;7.890;2022-12-15T18:39:49;-2.60;99.90
15296;DHT22;7749;49.964;7.890;2022-12-15T18:42:19;-2.60;99.90
15296;DHT22;7749;49.964;7.890;2022-12-15T18:44:50;-2.60;99.90
15296;DHT22;7749;49.964;7.890;2022-12-15T18:47:20;-2.70;99.90
15296;DHT22;7749;49.964;7.890;2022-12-15T18:49:49;-2.70;99.90
15296;DHT22;7749;49.964;7.890;2022-12-15T18:52:19;-2.70;99.90
15296;DHT22;7749;49.964;7.890;2022-12-15T18:54:48;-2.80;99.90
15296;DHT22;7749;49.964;7.890;2022-12-15T18:57:34;-2.80;99.90